Decoded Metar for OITT (TABRIZ in IRAN) (IATA:TBZ) | Meteo·Mobile Aviation Weather
aviador You're here:

OITT Decoded Metar

TABRIZ in IRAN
Report Time2019-02-22 15:00:00
UTC Time2019-02-22 15:11:59
Flight Rules vfr VFR
Wind240° at 04 kt
W.Decomp.*RWY 30: 1.7 kt HW 3.6 kt LCW
W.Rank240° ranks 9
Current wind is below 240° avg. (9.1)
Visibility9999 m
Phenomena:N/A
Clouds:Few 035 Hf
Expected CloudBase > 4,400 ft AGL from Temp-Dew spread
CeilingNone
Temp06°C (ISA -0)
Dew Point-5°C (46% RH)
AAT2.0°C
QNH1017 hPa
Density Alt4,380 ft
Elevation4,465 ft
Report Wrong Elevation
Raw Report
METAR OITT 221500Z 24004KT 9999 FEW035 06/M05 Q1017 A3005 NOSIG=

Extra information for OITT:More info

Metar Taf Metar & Taf Last 4 Metars F.Rules Stats Wind Profile Meteogram Temp Stats Airport Information Weather charts Add Link Nearby VenuesMetar ALERT Operation Metar Decoded Social comments